Guadalupe, Arizona
Current Conditions -  °F | °C
As of 1:51 AM on Saturday 22 Nov 2014 (Local Time) from KPHX Reporting Station
Clear Clear  
Wind Chill: 11°   Ceiling: Unl
Heat Index: 11°   Visibility: 10mi
Dew Point: -1°   Wind: 7mph
Humidity: 43%   Direction: 100°E
Pressure: 29.98"   Gusts: NA
Location:  33.364°N, 111.931°W
Report Text: KPHX 220851Z 10006KT 10SM CLR 11/M01 A2998 RMK AO2 SLP144 T01111011 51006
Loading
Personal Weather Stations






























Interactive Weather Map New forecast layout! Learn more

10-Day Weather Forecast

Advertisements
Track Severe Weather on mobile